Time;durP1;ratioP1;P1;durP2;ratioP2;P2;SDS_P1;SDS_P2;PMS_P1;PMS_P2;Temp;Humidity;BMP_temperature;BMP_pressure;BME280_temperature;BME280_humidity;BME280_pressure;Samples;Min_cycle;Max_cycle;Signal;HPM_P1;HPM_P2
2022/07/08 00:00:14;;;;;;;8.13;1.50;;;;;;;14.63;64.75;98393.41;5026131;28;20060;-62
2022/07/08 00:02:40;;;;;;;3.72;1.35;;;;;;;14.56;65.12;98393.59;5029675;28;20045;-63
2022/07/08 00:05:08;;;;;;;8.18;1.92;;;;;;;14.50;65.22;98400.06;5029869;28;20539;-62
2022/07/08 00:07:34;;;;;;;5.32;1.33;;;;;;;14.39;64.39;98406.47;5017361;28;20476;-63
2022/07/08 00:10:04;;;;;;;9.48;1.67;;;;;;;14.28;63.96;98397.31;5028904;28;20044;-62
2022/07/08 00:12:30;;;;;;;7.05;1.60;;;;;;;14.30;63.20;98416.97;5030000;28;20033;-62
2022/07/08 00:14:57;;;;;;;4.88;2.05;;;;;;;14.15;63.72;98409.38;5029794;28;20053;-62
2022/07/08 00:17:23;;;;;;;8.25;1.67;;;;;;;14.10;63.85;98417.47;5029471;28;20061;-62
2022/07/08 00:19:50;;;;;;;9.02;2.10;;;;;;;14.00;63.73;98415.41;5030056;28;20483;-62
2022/07/08 00:22:16;;;;;;;7.10;2.10;;;;;;;13.98;64.11;98412.13;5029141;28;20413;-62
2022/07/08 00:24:43;;;;;;;6.95;2.30;;;;;;;13.86;63.67;98414.94;5030149;28;20042;-63
2022/07/08 00:27:10;;;;;;;7.57;2.13;;;;;;;13.69;64.20;98423.09;5029170;28;20104;-62
2022/07/08 00:29:37;;;;;;;5.50;2.28;;;;;;;13.64;64.12;98424.66;5029210;28;20064;-64
2022/07/08 00:32:04;;;;;;;7.03;2.10;;;;;;;13.66;64.41;98424.41;5037899;28;20044;-62
2022/07/08 00:34:30;;;;;;;7.60;1.83;;;;;;;13.67;63.68;98422.53;5049072;28;20051;-62
2022/07/08 00:36:57;;;;;;;7.05;2.33;;;;;;;13.53;64.20;98425.56;5034267;28;20045;-62
2022/07/08 00:39:23;;;;;;;3.55;2.13;;;;;;;13.53;64.14;98426.38;5021894;28;20056;-62
2022/07/08 00:41:50;;;;;;;6.75;2.20;;;;;;;13.52;64.36;98435.63;5029160;28;20041;-62
2022/07/08 00:44:17;;;;;;;7.72;2.28;;;;;;;13.40;64.36;98443.81;5029302;28;20038;-62
2022/07/08 00:46:43;;;;;;;5.72;2.25;;;;;;;13.46;64.30;98441.19;5029317;28;20041;-63
2022/07/08 00:49:10;;;;;;;8.57;2.28;;;;;;;13.39;64.17;98450.31;5029213;28;20046;-62
2022/07/08 00:51:39;;;;;;;7.38;2.45;;;;;;;13.32;64.44;98446.94;5030496;28;20080;-62
2022/07/08 00:54:06;;;;;;;9.80;2.50;;;;;;;13.22;64.60;98444.84;5032436;28;20087;-62
2022/07/08 00:56:33;;;;;;;5.72;2.17;;;;;;;13.04;65.42;98443.13;5031376;28;20524;-62
2022/07/08 00:59:00;;;;;;;5.28;2.30;;;;;;;12.96;65.93;98441.63;5029975;28;20041;-62
2022/07/08 01:01:26;;;;;;;5.75;2.05;;;;;;;12.94;66.43;98438.31;5030392;28;20065;-63
2022/07/08 01:03:54;;;;;;;4.70;2.00;;;;;;;12.88;66.85;98440.13;5029414;28;20045;-62
2022/07/08 01:06:21;;;;;;;5.50;1.95;;;;;;;12.83;67.70;98447.34;5026876;28;20053;-62
2022/07/08 01:08:48;;;;;;;5.68;2.17;;;;;;;12.82;67.81;98448.38;5011314;28;20045;-62
2022/07/08 01:11:14;;;;;;;7.35;2.47;;;;;;;12.73;68.36;98443.34;5022651;28;20488;-62
2022/07/08 01:13:43;;;;;;;6.78;2.50;;;;;;;12.74;68.50;98455.03;5032667;28;20038;-62
2022/07/08 01:16:09;;;;;;;6.18;2.28;;;;;;;12.82;68.61;98446.50;5045013;28;20048;-63
2022/07/08 01:18:36;;;;;;;5.85;2.00;;;;;;;12.91;68.49;98451.56;5038942;28;20045;-62
2022/07/08 01:21:03;;;;;;;6.47;2.33;;;;;;;12.93;68.72;98442.09;5035719;28;20489;-62
2022/07/08 01:23:30;;;;;;;7.72;2.20;;;;;;;13.00;67.54;98439.25;5036052;28;20037;-62
2022/07/08 01:25:58;;;;;;;6.28;2.28;;;;;;;13.09;67.74;98445.13;5029390;28;20046;-62
2022/07/08 01:28:25;;;;;;;10.25;2.20;;;;;;;13.02;67.65;98442.56;5027531;28;20052;-62
2022/07/08 01:30:52;;;;;;;5.40;2.28;;;;;;;12.98;67.85;98450.34;5044003;28;20072;-63
2022/07/08 01:33:19;;;;;;;5.50;1.90;;;;;;;12.99;67.97;98452.03;5030455;28;20060;-62
2022/07/08 01:35:45;;;;;;;7.55;2.60;;;;;;;12.97;67.68;98453.34;5028037;28;20037;-62
2022/07/08 01:38:12;;;;;;;10.27;2.10;;;;;;;12.91;67.99;98455.13;5014969;28;20053;-62
2022/07/08 01:40:38;;;;;;;7.22;1.80;;;;;;;12.90;68.29;98458.88;5027670;28;20057;-62
2022/07/08 01:43:06;;;;;;;7.78;2.17;;;;;;;12.95;67.83;98458.19;5028723;28;20056;-62
2022/07/08 01:45:33;;;;;;;8.02;2.20;;;;;;;12.90;68.27;98466.22;5032863;28;20445;-62
2022/07/08 01:48:00;;;;;;;3.72;1.85;;;;;;;12.96;67.69;98467.97;5040909;28;20049;-62
2022/07/08 01:50:27;;;;;;;9.77;2.28;;;;;;;12.97;67.93;98469.66;5027946;28;20042;-62
2022/07/08 01:52:54;;;;;;;6.43;2.53;;;;;;;13.00;68.03;98475.41;5028136;28;20595;-62
2022/07/08 01:55:22;;;;;;;7.30;2.00;;;;;;;12.92;68.04;98469.53;5028556;28;20520;-62
2022/07/08 01:57:48;;;;;;;8.52;2.38;;;;;;;12.96;67.56;98478.84;5021037;28;20065;-62
2022/07/08 02:00:15;;;;;;;7.00;1.88;;;;;;;13.06;67.68;98480.97;5008553;28;20449;-63
2022/07/08 02:02:43;;;;;;;8.20;2.35;;;;;;;13.10;67.20;98482.13;5024240;28;20140;-62
2022/07/08 02:05:10;;;;;;;5.10;1.80;;;;;;;13.03;67.09;98479.53;5028097;28;20045;-62
2022/07/08 02:07:38;;;;;;;6.60;2.00;;;;;;;13.12;66.71;98474.56;5017666;28;20536;-62
2022/07/08 02:10:06;;;;;;;5.53;2.17;;;;;;;13.07;66.78;98480.72;5028657;28;20042;-62
2022/07/08 02:12:35;;;;;;;4.47;2.25;;;;;;;13.06;67.22;98484.50;5028240;28;20506;-62
2022/07/08 02:15:05;;;;;;;8.00;2.10;;;;;;;13.04;66.97;98480.38;5028222;28;20037;-62
2022/07/08 02:17:41;;;;;;;5.35;2.22;;;;;;;13.10;66.43;98474.81;5029109;28;20037;-63
2022/07/08 02:20:13;;;;;;;7.45;2.13;;;;;;;13.01;66.84;98473.50;5032021;28;20099;-62
2022/07/08 02:22:42;;;;;;;;;;;;;;;12.94;66.57;98470.94;5038514;28;20048;-62
2022/07/08 02:25:09;;;;;;;6.25;2.30;;;;;;;12.83;66.92;98480.75;5047560;28;19927;-62
2022/07/08 02:27:36;;;;;;;7.47;2.45;;;;;;;12.81;67.05;98485.63;5047696;28;20103;-62
2022/07/08 02:30:03;;;;;;;6.35;2.05;;;;;;;12.72;67.77;98489.78;5046150;28;20040;-62
2022/07/08 02:32:29;;;;;;;9.02;2.63;;;;;;;12.67;67.77;98484.22;5035877;28;20053;-62
2022/07/08 02:34:57;;;;;;;8.52;1.90;;;;;;;12.77;67.16;98489.06;5027238;28;20353;-62
2022/07/08 02:37:23;;;;;;;6.57;1.98;;;;;;;12.70;67.77;98486.47;5016667;28;20044;-62
2022/07/08 02:39:50;;;;;;;7.60;1.85;;;;;;;12.73;67.64;98491.44;5024513;28;20044;-62
2022/07/08 02:42:16;;;;;;;8.05;1.95;;;;;;;12.57;68.20;98496.50;5027238;28;20045;-62
2022/07/08 02:44:43;;;;;;;9.18;1.90;;;;;;;12.65;67.76;98497.22;5025993;28;20060;-62
2022/07/08 02:47:09;;;;;;;5.90;1.95;;;;;;;12.53;68.02;98503.47;5026535;28;20367;-63
2022/07/08 02:49:36;;;;;;;8.35;2.38;;;;;;;12.44;68.35;98497.59;5027712;28;20056;-62
2022/07/08 02:52:03;;;;;;;5.68;2.30;;;;;;;12.30;69.22;98507.03;5027182;28;20124;-62
2022/07/08 02:54:29;;;;;;;8.70;2.97;;;;;;;12.05;69.91;98511.59;5027020;28;20042;-62
2022/07/08 02:56:56;;;;;;;6.97;2.30;;;;;;;12.07;69.79;98506.78;5026992;28;20262;-63
2022/07/08 02:59:22;;;;;;;7.13;1.90;;;;;;;12.03;70.56;98505.56;5026964;28;20065;-62
2022/07/08 03:01:49;;;;;;;8.68;2.10;;;;;;;12.11;69.70;98507.13;5027056;28;20059;-62
2022/07/08 03:04:16;;;;;;;6.78;2.15;;;;;;;11.88;70.56;98508.72;5026796;28;20048;-62
2022/07/08 03:06:43;;;;;;;7.57;2.10;;;;;;;11.77;71.32;98518.47;5021615;28;20128;-62
2022/07/08 03:09:09;;;;;;;9.05;2.60;;;;;;;11.70;71.48;98510.44;5019070;28;20045;-62
2022/07/08 03:11:36;;;;;;;12.07;2.50;;;;;;;11.80;71.22;98511.75;5026644;28;20091;-62
2022/07/08 03:14:02;;;;;;;5.82;2.20;;;;;;;11.62;71.81;98512.66;5027358;28;20120;-62
2022/07/08 03:16:32;;;;;;;6.20;3.05;;;;;;;11.66;72.22;98514.69;5026353;28;20064;-62
2022/07/08 03:18:59;;;;;;;7.20;2.15;;;;;;;11.58;72.54;98513.09;5027024;28;20310;-62
2022/07/08 03:21:25;;;;;;;5.68;2.38;;;;;;;11.57;72.54;98522.31;5026652;28;20051;-63
2022/07/08 03:23:52;;;;;;;9.90;2.85;;;;;;;11.47;73.76;98529.34;5022374;28;20417;-63
2022/07/08 03:26:19;;;;;;;7.95;2.10;;;;;;;11.41;73.23;98525.66;5021436;28;20492;-63
2022/07/08 03:28:45;;;;;;;7.63;2.30;;;;;;;11.26;73.92;98526.88;5005994;28;20425;-62
2022/07/08 03:31:12;;;;;;;11.05;3.38;;;;;;;11.10;74.66;98535.63;5024039;28;20072;-62
2022/07/08 03:33:38;;;;;;;9.60;3.47;;;;;;;10.88;75.95;98534.19;5021318;28;20128;-62
2022/07/08 03:36:08;;;;;;;8.43;2.28;;;;;;;10.70;76.94;98540.44;5023056;28;20052;-62
2022/07/08 03:38:36;;;;;;;7.40;4.18;;;;;;;10.53;77.72;98546.44;5024805;28;20045;-62
2022/07/08 03:41:22;;;;;;;10.68;2.85;;;;;;;10.58;77.41;98545.75;5004186;28;20045;-62
2022/07/08 03:43:51;;;;;;;11.23;3.03;;;;;;;10.57;77.93;98548.69;5008427;28;20073;-62
2022/07/08 03:46:18;;;;;;;7.60;3.13;;;;;;;10.60;77.37;98549.06;5023561;28;20050;-62
2022/07/08 03:48:45;;;;;;;6.45;2.70;;;;;;;10.60;77.32;98559.91;5024664;28;20358;-62
2022/07/08 03:51:13;;;;;;;10.57;2.60;;;;;;;10.60;77.22;98550.94;5026572;28;20049;-62
2022/07/08 03:53:41;;;;;;;4.30;2.08;;;;;;;10.59;77.56;98560.97;5026158;28;20045;-63
2022/07/08 03:56:08;;;;;;;6.68;2.40;;;;;;;10.52;77.62;98558.31;5026564;28;20489;-63
2022/07/08 03:58:35;;;;;;;7.13;2.85;;;;;;;10.34;78.43;98556.34;5026176;28;20045;-63
2022/07/08 04:01:02;;;;;;;6.30;2.63;;;;;;;10.07;80.22;98561.97;5026088;28;20060;-62
2022/07/08 04:03:29;;;;;;;7.30;2.90;;;;;;;10.06;80.38;98564.91;5027057;28;20042;-62
2022/07/08 04:05:56;;;;;;;8.35;2.88;;;;;;;10.07;80.25;98567.41;5026082;28;20509;-62
2022/07/08 04:08:23;;;;;;;8.43;2.50;;;;;;;10.10;80.38;98566.94;5013445;28;20048;-63
2022/07/08 04:10:49;;;;;;;8.02;2.85;;;;;;;9.99;80.34;98576.59;5025991;28;20508;-62
2022/07/08 04:13:16;;;;;;;5.40;2.60;;;;;;;9.85;80.79;98572.31;5027145;28;20049;-62
2022/07/08 04:15:47;;;;;;;10.30;2.63;;;;;;;9.91;81.57;98571.44;5022867;28;20072;-62
2022/07/08 04:18:14;;;;;;;6.63;2.55;;;;;;;9.99;80.63;98559.53;5025865;28;20046;-62
2022/07/08 04:20:40;;;;;;;8.90;2.60;;;;;;;10.08;80.16;98560.94;5026495;28;20042;-62
2022/07/08 04:23:07;;;;;;;7.38;2.50;;;;;;;10.13;79.69;98571.91;5012735;28;20057;-62
2022/07/08 04:25:33;;;;;;;9.13;2.90;;;;;;;10.09;80.26;98573.41;5011017;28;20134;-62
2022/07/08 04:28:00;;;;;;;9.65;3.08;;;;;;;10.16;79.75;98567.94;5026273;28;20546;-62
2022/07/08 04:30:27;;;;;;;8.25;3.13;;;;;;;10.37;79.08;98565.91;5025453;28;20076;-62
2022/07/08 04:32:53;;;;;;;11.18;3.15;;;;;;;10.45;78.74;98562.97;5026186;28;20282;-62
2022/07/08 04:35:20;;;;;;;5.95;2.58;;;;;;;10.56;78.43;98564.09;5026031;28;20045;-62
2022/07/08 04:37:48;;;;;;;8.00;2.72;;;;;;;10.49;78.65;98560.63;5011396;28;20096;-62
2022/07/08 04:40:15;;;;;;;8.20;3.03;;;;;;;10.52;78.32;98562.91;5006900;28;20049;-62
2022/07/08 04:42:42;;;;;;;9.70;3.05;;;;;;;10.57;78.98;98562.25;5006225;28;20049;-62
2022/07/08 04:45:09;;;;;;;5.13;2.70;;;;;;;10.65;78.44;98568.19;5014332;28;20043;-62
2022/07/08 04:47:35;;;;;;;8.65;2.50;;;;;;;10.73;78.16;98568.97;5023789;28;20045;-62
2022/07/08 04:50:02;;;;;;;7.75;2.90;;;;;;;10.75;78.07;98564.97;5033361;28;20037;-62
2022/07/08 04:52:29;;;;;;;10.10;2.70;;;;;;;10.77;77.99;98573.69;5026622;28;20504;-62
2022/07/08 04:54:55;;;;;;;7.05;2.92;;;;;;;10.94;77.28;98573.09;5021711;28;20554;-62
2022/07/08 04:57:22;;;;;;;5.72;2.63;;;;;;;11.20;75.92;98573.88;5008633;28;20050;-62
2022/07/08 04:59:48;;;;;;;8.13;2.67;;;;;;;11.34;76.99;98574.53;5007256;28;20056;-63
2022/07/08 05:02:15;;;;;;;7.10;2.50;;;;;;;11.44;76.46;98574.84;5020038;28;20257;-63
2022/07/08 05:04:42;;;;;;;7.47;2.70;;;;;;;11.53;75.81;98572.63;5040761;28;20130;-62
2022/07/08 05:07:08;;;;;;;;;;;;;;;11.79;73.54;98575.25;5013837;28;20406;-62
2022/07/08 05:09:34;;;;;;;;;;;;;;;11.94;73.24;98578.34;5027924;28;20012;-62
2022/07/08 05:12:02;;;;;;;5.70;2.35;;;;;;;12.13;71.29;98578.31;5022663;28;20305;-62
2022/07/08 05:14:28;;;;;;;8.55;2.50;;;;;;;12.24;70.15;98571.25;5021184;28;20045;-62
2022/07/08 05:16:55;;;;;;;7.13;1.98;;;;;;;12.36;69.67;98569.38;5016594;28;20053;-63
2022/07/08 05:19:21;;;;;;;7.13;1.88;;;;;;;12.42;69.34;98573.03;5019992;28;20100;-62
2022/07/08 05:21:48;;;;;;;5.72;1.63;;;;;;;12.46;69.24;98573.41;5016479;28;20045;-62
2022/07/08 05:24:14;;;;;;;7.90;1.90;;;;;;;12.61;69.01;98579.19;5013193;28;20092;-62
2022/07/08 05:26:41;;;;;;;7.22;2.03;;;;;;;12.61;68.63;98576.47;5013587;28;20046;-62
2022/07/08 05:29:07;;;;;;;4.07;1.40;;;;;;;12.69;67.91;98583.47;5033245;28;20056;-62
2022/07/08 05:31:34;;;;;;;6.65;1.83;;;;;;;12.78;67.88;98581.22;5023899;28;20048;-62
2022/07/08 05:34:00;;;;;;;10.07;2.70;;;;;;;12.85;67.46;98579.22;5007500;28;20124;-62
2022/07/08 05:36:27;;;;;;;8.77;2.00;;;;;;;12.95;67.68;98581.34;5016567;28;20046;-62
2022/07/08 05:38:54;;;;;;;5.82;1.67;;;;;;;12.99;66.68;98587.13;5043303;28;20048;-62
2022/07/08 05:41:20;;;;;;;4.90;1.52;;;;;;;12.96;66.01;98587.59;5044306;28;20404;-62
2022/07/08 05:43:47;;;;;;;8.07;1.67;;;;;;;13.10;65.90;98586.28;5013695;28;20116;-63
2022/07/08 05:46:13;;;;;;;4.28;1.33;;;;;;;13.22;66.24;98596.31;5024665;28;20125;-62
2022/07/08 05:48:40;;;;;;;6.57;1.65;;;;;;;13.26;65.25;98589.31;5008358;28;20576;-62
2022/07/08 05:51:07;;;;;;;4.07;1.38;;;;;;;13.29;65.18;98602.44;5016273;28;20124;-63
2022/07/08 05:53:33;;;;;;;6.50;1.60;;;;;;;13.36;64.64;98603.16;5028100;28;20053;-62
2022/07/08 05:56:00;;;;;;;8.55;2.13;;;;;;;13.29;65.01;98597.00;5028220;28;20045;-63
2022/07/08 05:58:26;;;;;;;7.05;1.60;;;;;;;13.33;65.15;98591.91;5029197;28;20056;-62
2022/07/08 06:00:53;;;;;;;7.88;1.55;;;;;;;13.43;65.28;98603.03;5027571;28;20077;-62
2022/07/08 06:03:20;;;;;;;6.38;1.80;;;;;;;13.43;64.65;98603.03;5028725;28;20509;-62
2022/07/08 06:05:47;;;;;;;7.82;1.48;;;;;;;13.45;64.65;98602.78;5027824;28;20046;-63
2022/07/08 06:08:13;;;;;;;5.35;1.67;;;;;;;13.53;65.43;98603.25;5015096;28;20261;-63
2022/07/08 06:10:40;;;;;;;5.30;1.52;;;;;;;13.57;64.83;98606.34;5027939;28;20113;-62
2022/07/08 06:13:06;;;;;;;6.72;1.55;;;;;;;13.59;65.81;98611.50;5027986;28;20331;-62
2022/07/08 06:15:33;;;;;;;5.40;1.65;;;;;;;13.76;63.65;98604.25;5024898;28;20037;-63
2022/07/08 06:18:00;;;;;;;8.63;1.65;;;;;;;13.74;62.69;98611.81;5027714;28;20472;-62
2022/07/08 06:20:27;;;;;;;6.80;1.38;;;;;;;13.79;62.09;98609.19;5028421;28;20350;-63
2022/07/08 06:22:53;;;;;;;7.03;1.42;;;;;;;13.71;62.58;98612.31;5033455;28;20056;-62
2022/07/08 06:25:21;;;;;;;7.57;1.30;;;;;;;13.81;62.28;98617.13;5019737;28;20050;-63
2022/07/08 06:27:47;;;;;;;4.20;1.33;;;;;;;13.82;60.94;98604.34;5018584;28;20045;-63
2022/07/08 06:30:14;;;;;;;8.85;1.55;;;;;;;13.83;60.82;98611.44;5017807;28;20045;-63
2022/07/08 06:32:40;;;;;;;4.60;1.23;;;;;;;14.01;59.57;98613.94;5019018;28;20056;-63
2022/07/08 06:35:07;;;;;;;5.70;1.58;;;;;;;14.01;58.95;98615.88;5014863;28;20038;-63
2022/07/08 06:37:34;;;;;;;4.72;1.50;;;;;;;14.03;59.15;98621.88;5013853;28;20056;-63
2022/07/08 06:40:02;;;;;;;3.28;1.10;;;;;;;14.07;59.18;98619.53;5022472;28;20049;-63
2022/07/08 06:42:28;;;;;;;8.75;1.70;;;;;;;14.22;59.05;98621.69;5020124;28;20111;-63
2022/07/08 06:44:56;;;;;;;5.03;1.23;;;;;;;14.33;57.98;98615.34;5021085;28;20046;-63
2022/07/08 06:47:22;;;;;;;6.90;1.20;;;;;;;14.40;58.61;98618.72;5013995;28;20528;-63
2022/07/08 06:49:50;;;;;;;5.88;2.00;;;;;;;14.52;56.75;98631.47;5030390;28;20146;-65
2022/07/08 06:52:17;;;;;;;3.03;1.15;;;;;;;14.66;56.68;98629.22;5016340;28;20045;-63
2022/07/08 06:54:44;;;;;;;7.13;1.45;;;;;;;14.90;56.25;98631.81;5018934;28;20037;-63
2022/07/08 06:57:11;;;;;;;2.70;0.90;;;;;;;14.91;56.83;98625.28;5021711;28;20057;-63
2022/07/08 06:59:38;;;;;;;3.88;1.27;;;;;;;15.07;55.61;98627.16;5019769;28;20041;-63
2022/07/08 07:02:25;;;;;;;3.47;1.23;;;;;;;15.22;53.63;98633.91;5018552;28;20615;-63
2022/07/08 07:04:52;;;;;;;3.15;1.15;;;;;;;15.32;53.29;98631.31;5005998;28;20041;-63
2022/07/08 07:07:18;;;;;;;3.50;1.05;;;;;;;15.19;54.08;98626.25;5028029;28;20050;-63
2022/07/08 07:09:46;;;;;;;3.53;1.27;;;;;;;15.20;53.25;98630.59;5017221;28;20135;-63
2022/07/08 07:12:14;;;;;;;8.25;1.40;;;;;;;15.10;53.67;98639.47;5017483;28;20420;-62
2022/07/08 07:14:41;;;;;;;4.20;1.30;;;;;;;14.79;55.49;98639.84;5017159;28;20052;-62
2022/07/08 07:17:08;;;;;;;5.95;1.10;;;;;;;14.97;54.66;98646.13;5013966;28;20042;-63
2022/07/08 07:19:34;;;;;;;6.25;1.08;;;;;;;15.05;54.86;98639.41;5021609;28;20056;-63
2022/07/08 07:22:01;;;;;;;6.32;1.77;;;;;;;15.03;54.98;98641.53;5009573;28;20053;-62
2022/07/08 07:24:28;;;;;;;4.57;1.15;;;;;;;15.21;53.85;98651.34;5025105;28;20048;-62
2022/07/08 07:26:54;;;;;;;5.47;1.65;;;;;;;15.17;52.05;98650.19;5029808;28;20112;-63
2022/07/08 07:29:21;;;;;;;4.20;1.15;;;;;;;15.21;52.49;98641.28;5030385;28;20049;-63
2022/07/08 07:31:47;;;;;;;6.50;1.95;;;;;;;15.37;53.32;98640.66;5011323;28;20049;-63
2022/07/08 07:34:15;;;;;;;6.53;1.48;;;;;;;15.33;52.89;98654.81;5024716;28;20041;-63
2022/07/08 07:36:41;;;;;;;4.15;1.08;;;;;;;15.60;53.27;98651.31;5034153;28;20530;-63
2022/07/08 07:39:09;;;;;;;5.03;0.93;;;;;;;15.95;52.00;98656.69;5017384;28;20058;-62
2022/07/08 07:41:37;;;;;;;4.55;1.42;;;;;;;16.23;49.77;98655.66;5010728;28;20571;-63
2022/07/08 07:44:05;;;;;;;5.78;1.70;;;;;;;16.85;49.76;98655.34;5011039;28;20054;-62
2022/07/08 07:46:31;;;;;;;7.93;1.40;;;;;;;16.98;49.69;98653.25;5017733;28;20400;-62
2022/07/08 07:48:59;;;;;;;4.40;0.90;;;;;;;16.96;49.06;98648.06;5030656;28;20095;-62
2022/07/08 07:51:25;;;;;;;5.10;1.30;;;;;;;16.80;47.66;98655.31;5018531;28;20523;-63
2022/07/08 07:53:52;;;;;;;5.18;1.27;;;;;;;16.66;48.42;98646.72;5017117;28;20041;-63
2022/07/08 07:56:19;;;;;;;4.68;1.00;;;;;;;16.20;49.33;98647.13;5024542;28;20513;-63
2022/07/08 07:58:45;;;;;;;5.63;0.98;;;;;;;16.23;50.54;98644.72;5022765;28;20057;-63
2022/07/08 08:01:12;;;;;;;6.97;1.90;;;;;;;16.56;50.32;98649.38;5016440;28;20042;-63
2022/07/08 08:03:39;;;;;;;5.10;1.50;;;;;;;16.67;50.41;98653.00;5038284;28;20095;-63
2022/07/08 08:06:06;;;;;;;7.00;1.15;;;;;;;16.79;49.90;98656.41;5035557;28;20475;-63
2022/07/08 08:08:32;;;;;;;3.28;1.13;;;;;;;16.77;48.58;98658.59;5020868;28;20050;-63
2022/07/08 08:11:00;;;;;;;4.40;1.27;;;;;;;16.80;48.70;98657.22;5035241;28;20065;-63
2022/07/08 08:13:27;;;;;;;5.28;1.20;;;;;;;16.76;47.89;98651.44;5022272;28;20049;-63
2022/07/08 08:15:55;;;;;;;5.80;1.63;;;;;;;16.64;48.72;98654.34;5012562;28;20038;-63
2022/07/08 08:18:21;;;;;;;5.97;1.27;;;;;;;16.89;47.95;98653.72;5011057;28;20501;-63
2022/07/08 08:20:48;;;;;;;2.58;1.10;;;;;;;16.85;48.98;98660.81;5021340;28;20046;-63
2022/07/08 08:23:15;;;;;;;3.85;1.30;;;;;;;16.74;48.53;98654.44;5024488;28;20125;-63
2022/07/08 08:25:49;;;;;;;4.18;1.25;;;;;;;16.93;48.12;98659.53;5047440;28;20049;-63
2022/07/08 08:28:16;;;;;;;3.20;1.20;;;;;;;16.97;49.04;98662.53;5017040;28;20799;-63
2022/07/08 08:30:43;;;;;;;3.53;1.00;;;;;;;16.94;48.31;98661.16;5017668;28;20057;-63
2022/07/08 08:33:09;;;;;;;5.40;1.20;;;;;;;17.08;49.31;98653.38;5038209;28;20060;-63
2022/07/08 08:35:36;;;;;;;5.80;2.28;;;;;;;17.52;47.84;98648.69;5032833;28;20033;-63
2022/07/08 08:38:03;;;;;;;6.32;1.00;;;;;;;17.70;47.36;98652.03;5028582;28;20046;-63
2022/07/08 08:40:30;;;;;;;6.15;1.65;;;;;;;17.81;46.23;98651.81;5039708;28;20045;-63
2022/07/08 08:42:57;;;;;;;3.13;0.93;;;;;;;18.06;45.58;98649.44;5027630;28;20500;-63
2022/07/08 08:45:32;;;;;;;3.80;0.85;;;;;;;17.56;46.54;98652.53;5031430;28;20046;-63
2022/07/08 08:48:05;;;;;;;3.65;1.20;;;;;;;17.68;45.46;98650.41;5027406;28;20041;-63
2022/07/08 08:53:24;;;;;;;3.70;1.00;;;;;;;16.61;49.93;98644.78;5009345;28;20042;-63
2022/07/08 08:55:52;;;;;;;3.25;1.33;;;;;;;16.84;48.80;98642.75;5007455;28;20121;-63
2022/07/08 08:58:19;;;;;;;5.03;1.35;;;;;;;16.48;49.60;98640.53;5025682;28;20057;-63
2022/07/08 09:00:46;;;;;;;4.07;1.20;;;;;;;16.16;50.66;98649.53;5014384;28;20421;-63
2022/07/08 09:03:13;;;;;;;6.53;1.50;;;;;;;16.32;50.49;98653.25;5024875;28;20699;-63
2022/07/08 09:05:39;;;;;;;7.63;1.30;;;;;;;16.56;49.78;98649.38;5026822;28;20048;-63
2022/07/08 09:08:06;;;;;;;5.20;1.25;;;;;;;16.20;51.10;98647.94;5016098;28;20053;-63
2022/07/08 09:10:34;;;;;;;3.55;1.05;;;;;;;16.35;50.78;98636.34;5026953;28;20046;-64
2022/07/08 09:13:00;;;;;;;5.10;1.23;;;;;;;16.81;50.97;98648.75;5020709;28;20048;-63
2022/07/08 09:15:48;;;;;;;7.65;1.10;;;;;;;16.56;49.94;98639.25;5032784;28;20075;-63
2022/07/08 09:18:19;;;;;;;3.42;1.05;;;;;;;16.90;50.04;98643.63;5037290;28;20436;-63
2022/07/08 09:20:47;;;;;;;13.90;2.70;;;;;;;16.99;48.41;98642.03;5046209;28;20048;-63
2022/07/08 09:23:21;;;;;;;8.13;1.30;;;;;;;16.98;47.49;98640.41;5027992;28;20052;-63
2022/07/08 09:25:52;;;;;;;3.83;1.15;;;;;;;17.21;47.94;98632.91;5031064;28;20824;-63
2022/07/08 09:28:35;;;;;;;7.50;1.02;;;;;;;17.24;46.74;98643.34;5009259;28;20054;-63
2022/07/08 09:31:07;;;;;;;3.45;1.30;;;;;;;16.99;47.16;98639.31;5022782;28;20060;-64
2022/07/08 09:33:35;;;;;;;4.70;1.30;;;;;;;16.94;48.56;98643.91;5013685;28;20471;-63
2022/07/08 09:36:03;;;;;;;4.00;1.27;;;;;;;16.68;49.22;98636.34;5026431;28;20425;-63
2022/07/08 09:38:35;;;;;;;3.13;0.90;;;;;;;16.66;49.44;98643.16;5016030;28;20045;-63
2022/07/08 09:41:04;;;;;;;4.75;1.08;;;;;;;16.67;49.28;98629.25;5038404;28;20297;-63
2022/07/08 09:43:33;;;;;;;4.57;1.40;;;;;;;16.88;48.21;98643.88;5024812;28;20048;-63
2022/07/08 09:46:05;;;;;;;9.77;1.80;;;;;;;16.83;47.03;98643.00;5041065;28;20041;-63
2022/07/08 09:48:31;;;;;;;5.55;1.02;;;;;;;16.98;47.02;98648.59;5015635;28;20536;-63
2022/07/08 09:51:00;;;;;;;4.18;1.05;;;;;;;16.96;47.98;98649.97;5038935;28;20049;-63
2022/07/08 09:53:30;;;;;;;4.80;1.30;;;;;;;17.38;48.09;98640.94;5014621;28;20105;-63
2022/07/08 09:55:59;;;;;;;2.47;1.02;;;;;;;17.83;46.82;98640.59;5019551;28;20053;-63
2022/07/08 09:58:28;;;;;;;6.90;1.27;;;;;;;18.04;47.67;98646.97;5028028;28;20049;-63
2022/07/08 10:00:56;;;;;;;5.45;1.13;;;;;;;18.02;46.39;98640.91;5022654;28;20045;-63
2022/07/08 10:03:24;;;;;;;5.53;1.48;;;;;;;17.83;46.26;98643.31;5027546;28;20098;-63
2022/07/08 10:05:51;;;;;;;3.10;1.20;;;;;;;17.80;47.18;98633.72;5026455;28;20068;-63
2022/07/08 10:08:18;;;;;;;4.25;1.02;;;;;;;17.68;47.68;98646.81;5027500;28;20193;-63
2022/07/08 10:10:46;;;;;;;3.15;1.20;;;;;;;17.47;47.69;98648.66;5032207;28;20072;-63
2022/07/08 10:13:15;;;;;;;3.35;0.90;;;;;;;17.46;47.93;98641.53;5032618;28;20045;-63
2022/07/08 10:15:43;;;;;;;5.10;1.10;;;;;;;17.80;46.51;98654.84;5031810;28;20059;-63
2022/07/08 10:18:35;;;;;;;2.70;1.10;;;;;;;17.80;47.73;98646.63;5018906;28;20045;-64
2022/07/08 10:21:04;;;;;;;5.53;0.90;;;;;;;17.73;45.84;98652.31;5024284;28;20046;-63
2022/07/08 10:23:36;;;;;;;3.53;0.93;;;;;;;17.93;46.68;98656.25;5014555;28;20051;-63
2022/07/08 10:26:04;;;;;;;4.13;1.05;;;;;;;17.55;47.49;98648.97;5021877;28;20494;-63
2022/07/08 10:28:39;;;;;;;6.03;1.00;;;;;;;17.62;46.79;98648.72;5015964;28;20041;-63
2022/07/08 10:31:26;;;;;;;5.43;1.10;;;;;;;17.48;47.32;98650.31;5013058;28;20561;-62
2022/07/08 10:34:02;;;;;;;7.07;1.35;;;;;;;17.69;46.77;98651.19;5029551;28;20040;-63
2022/07/08 10:36:40;;;;;;;4.32;0.95;;;;;;;17.81;45.80;98651.81;5028458;28;20044;-63
2022/07/08 10:39:06;;;;;;;4.60;1.00;;;;;;;18.00;44.97;98645.84;5018958;28;20440;-63
2022/07/08 10:41:33;;;;;;;4.65;1.45;;;;;;;17.60;46.59;98653.66;5027913;28;20053;-63
2022/07/08 10:44:01;;;;;;;2.28;1.15;;;;;;;17.92;46.03;98649.13;5026593;28;20051;-63
2022/07/08 10:46:28;;;;;;;4.15;1.10;;;;;;;18.19;44.94;98643.47;5027390;28;20521;-63
2022/07/08 10:48:57;;;;;;;3.13;0.98;;;;;;;18.37;45.12;98646.78;5027183;28;20041;-63
2022/07/08 10:51:29;;;;;;;6.30;1.45;;;;;;;18.30;45.62;98648.97;5036685;28;20052;-63
2022/07/08 10:54:07;;;;;;;4.25;1.20;;;;;;;18.50;44.69;98645.41;5032056;28;20448;-63
2022/07/08 10:57:01;;;;;;;4.10;1.17;;;;;;;18.67;44.52;98636.94;5028104;28;20100;-63
2022/07/08 10:59:33;;;;;;;4.80;1.00;;;;;;;18.73;44.97;98651.47;5018815;28;20528;-63
2022/07/08 11:02:08;;;;;;;5.53;1.35;;;;;;;18.62;44.84;98647.06;5019103;28;20525;-63
2022/07/08 11:04:34;;;;;;;5.05;0.80;;;;;;;18.13;44.56;98646.47;5010129;28;20050;-63
2022/07/08 11:07:16;;;;;;;4.90;1.30;;;;;;;18.25;45.28;98651.69;5007124;28;20068;-62
2022/07/08 11:09:44;;;;;;;3.45;1.00;;;;;;;18.28;44.81;98643.75;5022933;28;20073;-63
2022/07/08 11:12:26;;;;;;;4.38;0.98;;;;;;;18.37;44.18;98640.47;5026984;28;20258;-63
2022/07/08 11:14:55;;;;;;;1.88;0.80;;;;;;;18.27;44.63;98639.34;5026523;28;20516;-63
2022/07/08 11:17:30;;;;;;;6.70;1.10;;;;;;;18.06;45.42;98646.69;5026579;28;20049;-64
2022/07/08 11:19:59;;;;;;;2.20;0.90;;;;;;;18.27;45.65;98638.53;5027010;28;20505;-64
2022/07/08 11:22:27;;;;;;;5.35;1.10;;;;;;;18.38;45.63;98642.94;5026230;28;20502;-65
2022/07/08 11:24:54;;;;;;;5.53;1.13;;;;;;;18.45;45.80;98648.16;5026834;28;20132;-64
2022/07/08 11:27:23;;;;;;;3.40;1.10;;;;;;;18.43;45.82;98633.91;5026440;28;20253;-64
2022/07/08 11:29:51;;;;;;;3.40;1.30;;;;;;;18.38;46.76;98631.97;5026889;28;20057;-64
2022/07/08 11:32:20;;;;;;;6.85;1.85;;;;;;;18.67;45.35;98627.88;5026470;28;20501;-64
2022/07/08 11:34:48;;;;;;;4.07;0.90;;;;;;;19.01;43.29;98627.28;5024710;28;20643;-64
2022/07/08 11:37:15;;;;;;;6.50;1.17;;;;;;;19.08;42.93;98636.09;5016764;28;20069;-64
2022/07/08 11:39:43;;;;;;;5.25;1.40;;;;;;;18.96;42.40;98641.84;5022466;28;20045;-64